createdAt,value
2018-09-10T00:00:50.380Z,88.45
2018-09-10T00:01:50.577Z,88.07
2018-09-10T00:02:50.739Z,87.21
2018-09-10T00:03:50.915Z,86.02
2018-09-10T00:04:51.081Z,84.49
2018-09-10T00:05:51.315Z,84.53
2018-09-10T00:06:51.477Z,84.69
2018-09-10T00:07:51.657Z,84.40
2018-09-10T00:08:51.867Z,85.01
2018-09-10T00:09:52.002Z,84.44
2018-09-10T00:10:52.200Z,84.72
2018-09-10T00:11:52.399Z,85.83
2018-09-10T00:12:52.551Z,85.64
2018-09-10T00:13:53.669Z,85.45
2018-09-10T00:14:52.889Z,85.16
2018-09-10T00:15:53.083Z,84.49
2018-09-10T00:16:53.281Z,84.01
2018-09-10T00:17:53.463Z,83.06
2018-09-10T00:18:53.635Z,82.49
2018-09-10T00:19:53.827Z,81.35
2018-09-10T00:20:54.052Z,81.54
2018-09-10T00:21:54.206Z,81.15
2018-09-10T00:22:54.385Z,80.58
2018-09-10T00:23:54.574Z,80.96
2018-09-10T00:24:54.751Z,81.15
2018-09-10T00:25:54.953Z,80.49
2018-09-10T00:26:55.139Z,81.15
2018-09-10T00:27:55.316Z,81.63
2018-09-10T00:28:55.506Z,81.82
2018-09-10T00:29:55.686Z,81.63
2018-09-10T00:30:55.887Z,81.82
2018-09-10T00:31:56.037Z,81.06
2018-09-10T00:32:56.231Z,80.11
2018-09-10T00:33:56.402Z,79.72
2018-09-10T00:34:56.582Z,78.86
2018-09-10T00:35:56.800Z,77.44
2018-09-10T00:36:56.970Z,76.77
2018-09-10T00:37:57.158Z,76.10
2018-09-10T00:38:57.389Z,75.62
2018-09-10T00:39:57.509Z,75.05
2018-09-10T00:40:57.691Z,74.48
2018-09-10T00:41:57.870Z,74.38
2018-09-10T00:42:58.037Z,74.10
2018-09-10T00:43:58.286Z,74.29
2018-09-10T00:44:58.411Z,74.29
2018-09-10T00:45:58.589Z,76.10
2018-09-10T00:46:58.770Z,75.91
2018-09-10T00:47:58.948Z,75.62
2018-09-10T00:48:59.129Z,75.81
2018-09-10T00:49:59.312Z,74.77
2018-09-10T00:50:59.496Z,74.10
2018-09-10T00:51:59.678Z,73.24
2018-09-10T00:52:59.903Z,73.43
2018-09-10T00:54:00.075Z,73.49
2018-09-10T00:55:00.194Z,73.21
2018-09-10T00:56:00.374Z,73.62
2018-09-10T00:57:00.547Z,74.57
2018-09-10T00:58:00.735Z,72.53
2018-09-10T00:59:00.921Z,71.20
2018-09-10T01:00:01.100Z,70.63
2018-09-10T01:01:01.285Z,70.57
2018-09-10T01:02:01.464Z,70.44
2018-09-10T01:03:01.654Z,70.82
2018-09-10T01:04:01.830Z,71.01
2018-09-10T01:05:02.012Z,71.58
2018-09-10T01:06:02.200Z,71.01
2018-09-10T01:07:02.384Z,71.01
2018-09-10T01:08:02.551Z,71.01
2018-09-10T01:09:02.739Z,71.11
2018-09-10T01:10:02.942Z,71.77
2018-09-10T01:11:03.128Z,71.87
2018-09-10T01:12:03.302Z,72.44
2018-09-10T01:13:03.470Z,72.25
2018-09-10T01:14:03.644Z,71.20
2018-09-10T01:15:03.825Z,71.58
2018-09-10T01:16:04.001Z,71.58
2018-09-10T01:17:04.176Z,71.30
2018-09-10T01:18:04.365Z,71.48
2018-09-10T01:19:04.541Z,71.11
2018-09-10T01:20:04.725Z,71.39
2018-09-10T01:21:04.906Z,71.30
2018-09-10T01:22:05.086Z,71.58
2018-09-10T01:23:05.266Z,71.96
2018-09-10T01:24:05.445Z,72.63
2018-09-10T01:25:05.637Z,72.50
2018-09-10T01:26:05.856Z,73.21
2018-09-10T01:27:06.019Z,73.55
2018-09-10T01:28:06.173Z,74.12
2018-09-10T01:29:06.351Z,72.50
2018-09-10T01:30:06.565Z,71.07
2018-09-10T01:31:06.710Z,69.35
2018-09-10T01:32:06.892Z,67.74
2018-09-10T01:33:07.080Z,66.02
2018-09-10T01:34:07.275Z,64.50
2018-09-10T01:35:07.462Z,62.97
2018-09-10T01:36:07.625Z,62.12
2018-09-10T01:37:07.823Z,62.30
2018-09-10T01:38:07.980Z,61.93
2018-09-10T01:39:08.167Z,61.16
2018-09-10T01:40:08.358Z,61.35
2018-09-10T01:41:08.527Z,62.21
2018-09-10T01:42:08.707Z,60.78
2018-09-10T01:43:08.923Z,60.11
2018-09-10T01:44:09.085Z,58.97
2018-09-10T01:45:09.263Z,58.30
2018-09-10T01:46:09.438Z,57.64
2018-09-10T01:47:09.606Z,56.30
2018-09-10T01:48:09.793Z,56.40
2018-09-10T01:49:09.977Z,56.78
2018-09-10T01:50:10.163Z,57.07
2018-09-10T01:51:10.342Z,58.69
2018-09-10T01:52:10.572Z,57.73
2018-09-10T01:53:10.715Z,56.40
2018-09-10T01:54:10.927Z,55.35
2018-09-10T01:55:11.058Z,55.26
2018-09-10T01:56:11.254Z,54.97
2018-09-10T01:57:11.415Z,55.83
2018-09-10T01:58:11.613Z,55.73
2018-09-10T01:59:11.782Z,55.54
2018-09-10T02:00:11.961Z,55.54
2018-09-10T02:01:12.137Z,55.63
2018-09-10T02:02:12.333Z,55.26
2018-09-10T02:03:12.507Z,55.63
2018-09-10T02:04:12.692Z,55.44
2018-09-10T02:05:12.861Z,55.63
2018-09-10T02:06:13.042Z,56.59
2018-09-10T02:07:13.241Z,57.73
2018-09-10T02:08:13.418Z,58.11
2018-09-10T02:09:13.561Z,58.87
2018-09-10T02:10:13.741Z,59.54
2018-09-10T02:11:13.920Z,60.40
2018-09-10T02:12:14.111Z,60.78
2018-09-10T02:13:14.291Z,60.11
2018-09-10T02:14:14.519Z,59.99
2018-09-10T02:15:14.713Z,59.51
2018-09-10T02:16:14.893Z,58.11
2018-09-10T02:17:15.132Z,56.37
2018-09-10T02:18:15.252Z,56.30
2018-09-10T02:19:15.432Z,55.80
2018-09-10T02:20:15.619Z,56.68
2018-09-10T02:21:15.841Z,57.16
2018-09-10T02:22:16.000Z,54.75
2018-09-10T02:23:16.190Z,53.89
2018-09-10T02:24:16.332Z,53.25
2018-09-10T02:25:16.522Z,53.80
2018-09-10T02:26:16.696Z,54.21
2018-09-10T02:27:16.889Z,54.30
2018-09-10T02:28:17.072Z,53.99
2018-09-10T02:29:17.330Z,54.49
2018-09-10T02:30:17.492Z,54.94
2018-09-10T02:31:17.604Z,55.42
2018-09-10T02:32:17.786Z,55.61
2018-09-10T02:33:17.970Z,54.85
2018-09-10T02:34:18.150Z,54.27
2018-09-10T02:35:18.335Z,54.37
2018-09-10T02:36:18.505Z,55.70
2018-09-10T02:37:18.719Z,55.51
2018-09-10T02:38:18.880Z,55.61
2018-09-10T02:39:19.042Z,55.70
2018-09-10T02:40:19.227Z,55.51
2018-09-10T02:41:19.428Z,55.51
2018-09-10T02:42:19.624Z,57.13
2018-09-10T02:43:19.816Z,56.94
2018-09-10T02:44:19.986Z,56.85
2018-09-10T02:45:20.165Z,56.75
2018-09-10T02:46:20.329Z,57.04
2018-09-10T02:47:20.527Z,57.23
2018-09-10T02:48:20.687Z,56.85
2018-09-10T02:49:20.948Z,55.99
2018-09-10T02:50:21.046Z,56.37
2018-09-10T02:51:21.220Z,56.65
2018-09-10T02:52:21.421Z,56.94
2018-09-10T02:53:21.616Z,57.32
2018-09-10T02:54:21.788Z,56.94
2018-09-10T02:55:21.946Z,57.04
2018-09-10T02:56:22.123Z,57.13
2018-09-10T02:57:22.304Z,56.94
2018-09-10T02:58:22.489Z,57.80
2018-09-10T02:59:22.671Z,57.51
2018-09-10T03:00:22.849Z,56.56
2018-09-10T03:01:23.046Z,55.61
2018-09-10T03:02:23.276Z,55.42
2018-09-10T03:03:23.390Z,54.66
2018-09-10T03:04:23.577Z,55.22
2018-09-10T03:05:23.763Z,55.04
2018-09-10T03:06:23.940Z,54.75
2018-09-10T03:07:24.116Z,54.18
2018-09-10T03:08:24.301Z,54.18
2018-09-10T03:09:24.489Z,53.13
2018-09-10T03:10:24.678Z,52.56
2018-09-10T03:11:24.852Z,52.47
2018-09-10T03:12:25.038Z,51.70
2018-09-10T03:13:25.214Z,52.18
2018-09-10T03:14:25.399Z,52.47
2018-09-10T03:15:25.578Z,52.09
2018-09-10T03:16:25.760Z,52.09
2018-09-10T03:17:25.936Z,52.09
2018-09-10T03:18:26.137Z,52.09
2018-09-10T03:19:26.289Z,52.28
2018-09-10T03:20:26.495Z,51.99
2018-09-10T03:21:26.672Z,52.09
2018-09-10T03:22:26.850Z,51.61
2018-09-10T03:23:27.033Z,52.37
2018-09-10T03:24:27.215Z,52.37
2018-09-10T03:25:27.401Z,52.18
2018-09-10T03:26:27.582Z,51.61
2018-09-10T03:27:27.797Z,51.80
2018-09-10T03:28:27.956Z,51.42
2018-09-10T03:29:28.145Z,51.70
2018-09-10T03:30:28.321Z,50.94
2018-09-10T03:31:28.470Z,50.94
2018-09-10T03:32:28.648Z,50.46
2018-09-10T03:33:28.858Z,49.80
2018-09-10T03:34:28.991Z,47.32
2018-09-10T03:35:29.164Z,46.56
2018-09-10T03:36:29.373Z,45.89
2018-09-10T03:37:29.597Z,44.56
2018-09-10T03:38:29.723Z,43.80
2018-09-10T03:39:29.910Z,42.83
2018-09-10T03:40:30.095Z,41.11
2018-09-10T03:41:30.275Z,39.12
2018-09-10T03:42:30.449Z,37.88
2018-09-10T03:43:30.661Z,37.12
2018-09-10T03:44:30.841Z,36.83
2018-09-10T03:45:30.972Z,37.02
2018-09-10T03:46:31.158Z,36.55
2018-09-10T03:47:31.330Z,36.74
2018-09-10T03:48:31.507Z,36.93
2018-09-10T03:49:31.692Z,36.83
2018-09-10T03:50:31.876Z,36.55
2018-09-10T03:51:32.062Z,35.88
2018-09-10T03:52:32.218Z,34.45
2018-09-10T03:53:32.396Z,33.97
2018-09-10T03:54:32.567Z,36.83
2018-09-10T03:55:32.755Z,38.54
2018-09-10T03:56:32.937Z,39.78
2018-09-10T03:57:33.120Z,41.49
2018-09-10T03:58:33.289Z,42.64
2018-09-10T03:59:33.453Z,42.16
2018-09-10T04:00:33.632Z,41.49
2018-09-10T04:01:33.809Z,41.59
2018-09-10T04:02:33.986Z,41.21
2018-09-10T04:03:34.194Z,41.11
2018-09-10T04:04:34.745Z,42.07
2018-09-10T04:05:34.556Z,42.73
2018-09-10T04:06:34.742Z,42.92
2018-09-10T04:07:34.927Z,42.83
2018-09-10T04:08:35.109Z,42.73
2018-09-10T04:09:35.291Z,42.54
2018-09-10T04:10:35.466Z,42.73
2018-09-10T04:11:35.646Z,42.44
2018-09-10T04:12:35.832Z,41.11
2018-09-10T04:13:36.010Z,39.50
2018-09-10T04:14:36.193Z,38.73
2018-09-10T04:15:36.395Z,38.35
2018-09-10T04:16:36.560Z,38.35
2018-09-10T04:17:36.741Z,37.88
2018-09-10T04:18:36.925Z,36.35
2018-09-10T04:19:37.102Z,35.88
2018-09-10T04:20:37.283Z,35.97
2018-09-10T04:21:37.459Z,35.12
2018-09-10T04:22:37.636Z,35.02
2018-09-10T04:23:37.816Z,34.74
2018-09-10T04:24:38.009Z,34.55
2018-09-10T04:25:38.223Z,34.83
2018-09-10T04:26:38.406Z,35.02
2018-09-10T04:27:38.539Z,34.92
2018-09-10T04:28:38.799Z,34.64
2018-09-10T04:29:38.948Z,33.78
2018-09-10T04:30:39.085Z,32.93
2018-09-10T04:31:39.224Z,31.40
2018-09-10T04:32:39.427Z,29.60
2018-09-10T04:33:39.597Z,28.17
2018-09-10T04:34:39.755Z,27.79
2018-09-10T04:35:39.951Z,27.79
2018-09-10T04:36:40.140Z,27.98
2018-09-10T04:37:40.319Z,27.41
2018-09-10T04:38:40.502Z,26.06
2018-09-10T04:39:40.707Z,24.82
2018-09-10T04:40:40.979Z,23.78
2018-09-10T04:41:41.065Z,22.06
2018-09-10T04:42:41.262Z,21.50
2018-09-10T04:43:41.436Z,21.40
2018-09-10T04:44:41.760Z,21.50
2018-09-10T04:45:41.958Z,20.83
2018-09-10T04:46:41.965Z,20.36
2018-09-10T04:47:42.178Z,20.07
2018-09-10T04:48:42.386Z,19.59
2018-09-10T04:49:42.591Z,19.31
2018-09-10T04:50:42.739Z,19.12
2018-09-10T04:51:42.901Z,17.97
2018-09-10T04:52:43.062Z,16.17
2018-09-10T04:53:43.255Z,15.03
2018-09-10T04:54:43.415Z,13.89
2018-09-10T04:55:43.582Z,12.18
2018-09-10T04:56:43.775Z,11.61
2018-09-10T04:57:43.937Z,10.94
2018-09-10T04:58:44.128Z,11.04
2018-09-10T04:59:44.312Z,10.75
2018-09-10T05:00:44.492Z,10.47
2018-09-10T05:01:44.641Z,11.32
2018-09-10T05:02:44.838Z,11.51
2018-09-10T05:03:44.982Z,11.90
2018-09-10T05:04:45.188Z,12.08
2018-09-10T05:05:45.400Z,12.46
2018-09-10T05:06:45.602Z,13.42
2018-09-10T05:07:45.837Z,13.42
2018-09-10T05:08:45.985Z,15.03
2018-09-10T05:09:46.191Z,17.99
2018-09-10T05:10:46.367Z,19.70
2018-09-10T05:11:46.522Z,22.65
2018-09-10T05:12:46.704Z,27.88
2018-09-10T05:13:46.883Z,34.74
2018-09-10T05:14:47.060Z,40.85
2018-09-10T05:15:47.237Z,43.32
2018-09-10T05:16:47.427Z,43.80
2018-09-10T05:17:47.589Z,44.59
2018-09-10T05:18:47.838Z,45.15
2018-09-10T05:19:47.968Z,47.25
2018-09-10T05:20:48.158Z,47.44
2018-09-10T05:21:48.396Z,51.28
2018-09-10T05:22:48.520Z,54.88
2018-09-10T05:23:48.749Z,55.73
2018-09-10T05:24:48.907Z,54.59
2018-09-10T05:25:49.056Z,52.49
2018-09-10T05:26:49.229Z,50.97
2018-09-10T05:27:49.411Z,49.61
2018-09-10T05:28:49.586Z,49.26
2018-09-10T05:29:49.775Z,50.87
2018-09-10T05:30:49.956Z,51.35
2018-09-10T05:31:50.160Z,53.35
2018-09-10T05:32:50.347Z,55.35
2018-09-10T05:33:50.523Z,56.24
2018-09-10T05:34:50.703Z,58.24
2018-09-10T05:35:50.884Z,60.91
2018-09-10T05:36:51.082Z,66.56
2018-09-10T05:37:51.254Z,70.38
2018-09-10T05:38:51.456Z,74.48
2018-09-10T05:39:51.611Z,79.28
2018-09-10T05:40:51.805Z,83.01
2018-09-10T05:41:51.991Z,84.63
2018-09-10T05:42:52.183Z,85.68
2018-09-10T05:43:52.407Z,85.87
2018-09-10T05:44:52.538Z,85.68
2018-09-10T05:45:52.729Z,85.58
2018-09-10T05:46:52.971Z,89.88
2018-09-10T05:47:53.088Z,90.83
2018-09-10T05:48:53.284Z,92.46
2018-09-10T05:49:53.461Z,92.83
2018-09-10T05:50:53.639Z,94.07
2018-09-10T05:51:53.847Z,91.12
2018-09-10T05:52:54.019Z,90.93
2018-09-10T05:53:54.200Z,91.12
2018-09-10T05:54:54.389Z,91.60
2018-09-10T05:55:54.571Z,90.73
2018-09-10T05:56:54.755Z,90.59
2018-09-10T05:57:54.940Z,91.02
2018-09-10T05:58:55.118Z,90.40
2018-09-10T05:59:55.301Z,92.12
2018-09-10T06:00:55.511Z,91.50
2018-09-10T06:01:55.663Z,91.21
2018-09-10T06:02:55.847Z,89.31
2018-09-10T06:03:56.032Z,86.59
2018-09-10T06:04:56.215Z,86.06
2018-09-10T06:05:56.399Z,84.92
2018-09-10T06:06:56.593Z,83.92
2018-09-10T06:07:56.781Z,84.30
2018-09-10T06:08:56.971Z,81.44
2018-09-10T06:09:57.144Z,80.11
2018-09-10T06:10:57.330Z,78.96
2018-09-10T06:11:57.589Z,81.20
2018-09-10T06:12:57.700Z,82.72
2018-09-10T06:13:57.878Z,84.34
2018-09-10T06:14:58.049Z,85.91
2018-09-10T06:15:58.231Z,85.72
2018-09-10T06:16:58.428Z,88.45
2018-09-10T06:17:58.617Z,87.92
2018-09-10T06:18:58.803Z,88.44
2018-09-10T06:19:59.025Z,93.65
2018-09-10T06:20:59.190Z,97.99
2018-09-10T06:21:59.378Z,99.43
2018-09-10T06:22:59.551Z,98.14
2018-09-10T06:23:59.738Z,99.99
2018-09-10T06:24:59.929Z,99.99
2018-09-10T06:26:00.115Z,99.99
2018-09-10T06:27:00.299Z,99.99
2018-09-10T06:28:00.499Z,99.99
2018-09-10T06:29:00.666Z,99.99
2018-09-10T06:30:00.851Z,99.99
2018-09-10T06:31:01.049Z,99.99
2018-09-10T06:32:01.221Z,99.99
2018-09-10T06:33:01.419Z,99.99
2018-09-10T06:34:01.660Z,99.99
2018-09-10T06:35:01.774Z,99.99
2018-09-10T06:36:01.963Z,99.99
2018-09-10T06:37:02.174Z,99.99
2018-09-10T06:38:02.336Z,99.99
2018-09-10T06:39:02.531Z,99.99
2018-09-10T06:40:02.723Z,99.99
2018-09-10T06:41:02.915Z,99.99
2018-09-10T06:42:03.102Z,99.99
2018-09-10T06:43:03.291Z,99.99
2018-09-10T06:44:03.480Z,99.99
2018-09-10T06:45:03.680Z,99.99
2018-09-10T06:46:03.877Z,99.99
2018-09-10T06:47:04.102Z,99.99
2018-09-10T06:48:04.267Z,99.99
2018-09-10T06:49:04.515Z,99.99
2018-09-10T06:50:04.577Z,99.99
2018-09-10T06:51:04.765Z,99.99
2018-09-10T06:52:04.964Z,99.99
2018-09-10T06:53:05.150Z,99.99
2018-09-10T06:54:05.327Z,99.99
2018-09-10T06:55:05.538Z,99.99
2018-09-10T06:56:05.728Z,99.99
2018-09-10T06:57:05.924Z,99.99
2018-09-10T06:58:06.096Z,99.99
2018-09-10T06:59:06.288Z,99.99
2018-09-10T07:00:06.508Z,99.99
2018-09-10T07:01:06.656Z,99.99
2018-09-10T07:02:06.841Z,99.99
2018-09-10T07:03:07.033Z,99.99
2018-09-10T07:04:07.237Z,99.99
2018-09-10T07:05:07.415Z,99.99
2018-09-10T07:06:07.615Z,99.99
2018-09-10T07:07:07.789Z,99.99
2018-09-10T07:08:07.982Z,99.99
2018-09-10T07:09:08.203Z,99.99
2018-09-10T07:10:08.386Z,99.99
2018-09-10T07:11:08.592Z,99.99
2018-09-10T07:12:08.781Z,99.99
2018-09-10T07:13:08.960Z,99.99
2018-09-10T07:14:09.149Z,99.99
2018-09-10T07:15:09.321Z,99.99
2018-09-10T07:16:09.520Z,99.99
2018-09-10T07:17:09.708Z,99.99
2018-09-10T07:18:09.895Z,99.99
2018-09-10T07:19:10.099Z,99.99
2018-09-10T07:20:10.276Z,99.99
2018-09-10T07:21:10.465Z,99.99
2018-09-10T07:22:10.644Z,99.99
2018-09-10T07:23:10.823Z,99.99
2018-09-10T07:24:11.003Z,99.99
2018-09-10T07:25:11.196Z,99.99
2018-09-10T07:26:11.396Z,99.99
2018-09-10T07:27:11.563Z,99.99
2018-09-10T07:28:11.750Z,99.99
2018-09-10T07:29:11.941Z,99.99
2018-09-10T07:30:12.131Z,99.99
2018-09-10T07:31:12.312Z,99.99
2018-09-10T07:32:12.504Z,99.99
2018-09-10T07:33:12.692Z,99.99
2018-09-10T07:34:12.893Z,99.99
2018-09-10T07:35:13.072Z,99.99
2018-09-10T07:36:13.258Z,99.99
2018-09-10T07:37:13.422Z,99.99
2018-09-10T07:38:13.615Z,99.99
2018-09-10T07:39:13.800Z,99.99
2018-09-10T07:40:13.980Z,99.99
2018-09-10T07:41:14.171Z,99.99
2018-09-10T07:42:14.356Z,99.99
2018-09-10T07:43:14.540Z,99.99
2018-09-10T07:44:14.784Z,99.99
2018-09-10T07:45:14.980Z,99.99
2018-09-10T07:46:15.112Z,99.99
2018-09-10T07:47:15.304Z,99.99
2018-09-10T07:48:15.485Z,99.99
2018-09-10T07:49:15.674Z,99.99
2018-09-10T07:50:15.895Z,99.99
2018-09-10T07:51:16.053Z,99.99
2018-09-10T07:52:16.242Z,99.99
2018-09-10T07:53:16.439Z,99.99
2018-09-10T07:54:16.624Z,99.99
2018-09-10T07:55:16.810Z,99.99
2018-09-10T07:56:16.994Z,99.99
2018-09-10T07:57:17.191Z,99.99
2018-09-10T07:58:17.353Z,99.99
2018-09-10T07:59:17.560Z,99.99
2018-09-10T08:00:17.730Z,99.99
2018-09-10T08:01:17.918Z,99.99
2018-09-10T08:02:18.109Z,99.99
2018-09-10T08:03:18.284Z,99.99
2018-09-10T08:04:18.476Z,99.99
2018-09-10T08:05:18.653Z,99.99
2018-09-10T08:06:18.839Z,99.99
2018-09-10T08:07:19.037Z,99.99
2018-09-10T08:08:19.217Z,99.99
2018-09-10T08:09:19.456Z,99.99
2018-09-10T08:10:19.600Z,99.99
2018-09-10T08:11:19.790Z,99.99
2018-09-10T08:12:19.990Z,99.99
2018-09-10T08:13:20.179Z,99.99
2018-09-10T08:14:20.367Z,99.99
2018-09-10T08:15:20.544Z,99.99
2018-09-10T08:16:20.746Z,99.99
2018-09-10T08:17:20.935Z,99.99
2018-09-10T08:18:21.141Z,99.99
2018-09-10T08:19:21.291Z,99.99
2018-09-10T08:20:21.479Z,99.99
2018-09-10T08:21:21.668Z,99.99
2018-09-10T08:22:21.916Z,99.99
2018-09-10T08:23:22.107Z,98.87
2018-09-10T08:24:22.437Z,98.39
2018-09-10T08:25:22.498Z,98.49
2018-09-10T08:26:22.663Z,99.16
2018-09-10T08:27:22.857Z,98.05
2018-09-10T08:28:23.047Z,99.99
2018-09-10T08:29:23.230Z,98.68
2018-09-10T08:30:23.411Z,99.99
2018-09-10T08:31:23.578Z,99.99
2018-09-10T08:32:23.769Z,99.99
2018-09-10T08:33:23.946Z,99.98
2018-09-10T08:34:24.153Z,99.99
2018-09-10T08:35:24.381Z,99.99
2018-09-10T08:36:24.527Z,99.64
2018-09-10T08:37:24.711Z,99.99
2018-09-10T08:38:24.934Z,99.99
2018-09-10T08:39:25.101Z,99.99
2018-09-10T08:40:25.346Z,97.42
2018-09-10T08:41:25.467Z,97.14
2018-09-10T08:42:25.714Z,98.19
2018-09-10T08:43:25.849Z,97.38
2018-09-10T08:44:26.017Z,97.57
2018-09-10T08:45:26.228Z,97.67
2018-09-10T08:46:26.372Z,98.63
2018-09-10T08:47:26.584Z,99.11
2018-09-10T08:48:26.743Z,99.78
2018-09-10T08:49:26.981Z,99.49
2018-09-10T08:50:27.124Z,99.40
2018-09-10T08:51:27.282Z,99.99
2018-09-10T08:52:27.459Z,99.99
2018-09-10T08:53:27.646Z,99.99
2018-09-10T08:54:27.894Z,99.88
2018-09-10T08:55:28.145Z,99.59
2018-09-10T08:56:28.200Z,99.21
2018-09-10T08:57:28.406Z,98.72
2018-09-10T08:58:28.599Z,98.82
2018-09-10T08:59:28.762Z,99.16
2018-09-10T09:00:29.060Z,99.99
2018-09-10T09:01:29.158Z,99.99
2018-09-10T09:02:29.352Z,99.99
2018-09-10T09:03:29.520Z,99.99
2018-09-10T09:04:29.724Z,99.99
2018-09-10T09:05:29.884Z,99.99
2018-09-10T09:06:30.155Z,99.73
2018-09-10T09:07:30.260Z,99.99
2018-09-10T09:08:30.451Z,99.73
2018-09-10T09:09:30.647Z,99.44
2018-09-10T09:10:30.815Z,98.96
2018-09-10T09:11:31.009Z,97.62
2018-09-10T09:12:31.211Z,98.24
2018-09-10T09:13:31.406Z,99.49
2018-09-10T09:14:31.570Z,99.01
2018-09-10T09:15:31.748Z,97.86
2018-09-10T09:16:31.934Z,97.28
2018-09-10T09:17:32.176Z,97.42
2018-09-10T09:18:32.358Z,96.85
2018-09-10T09:19:32.447Z,97.91
2018-09-10T09:20:32.640Z,98.49
2018-09-10T09:21:32.855Z,99.98
2018-09-10T09:22:33.020Z,98.34
2018-09-10T09:23:33.274Z,96.42
2018-09-10T09:24:33.390Z,96.12
2018-09-10T09:25:33.558Z,97.09
2018-09-10T09:26:33.746Z,98.92
2018-09-10T09:27:33.965Z,98.72
2018-09-10T09:28:34.128Z,99.40
2018-09-10T09:29:34.332Z,99.99
2018-09-10T09:30:34.504Z,99.99
2018-09-10T09:31:34.711Z,99.99
2018-09-10T09:32:34.931Z,99.99
2018-09-10T09:33:35.156Z,99.99
2018-09-10T09:34:35.309Z,97.62
2018-09-10T09:35:35.451Z,95.11
2018-09-10T09:36:35.665Z,95.59
2018-09-10T09:37:35.825Z,95.64
2018-09-10T09:38:36.017Z,95.74
2018-09-10T09:39:36.207Z,93.71
2018-09-10T09:40:36.390Z,93.43
2018-09-10T09:41:36.584Z,92.22
2018-09-10T09:42:36.777Z,92.99
2018-09-10T09:43:36.975Z,92.99
2018-09-10T09:44:37.163Z,92.94
2018-09-10T09:45:37.359Z,93.23
2018-09-10T09:46:37.545Z,93.86
2018-09-10T09:47:37.736Z,93.28
2018-09-10T09:48:37.942Z,94.34
2018-09-10T09:49:38.105Z,95.59
2018-09-10T09:50:38.290Z,95.59
2018-09-10T09:51:38.507Z,95.59
2018-09-10T09:52:38.655Z,96.27
2018-09-10T09:53:38.851Z,95.06
2018-09-10T09:54:39.047Z,95.45
2018-09-10T09:55:39.219Z,94.58
2018-09-10T09:56:39.411Z,95.74
2018-09-10T09:57:39.629Z,94.34
2018-09-10T09:58:39.774Z,95.31
2018-09-10T09:59:39.972Z,94.00
2018-09-10T10:00:40.156Z,92.84
2018-09-10T10:01:40.340Z,91.63
2018-09-10T10:02:40.545Z,91.73
2018-09-10T10:03:40.741Z,90.67
2018-09-10T10:04:40.948Z,90.28
2018-09-10T10:05:41.098Z,90.67
2018-09-10T10:06:41.277Z,90.47
2018-09-10T10:07:41.483Z,90.23
2018-09-10T10:08:41.661Z,89.94
2018-09-10T10:09:41.929Z,89.65
2018-09-10T10:10:42.055Z,89.45
2018-09-10T10:11:42.379Z,88.78
2018-09-10T10:12:42.431Z,88.49
2018-09-10T10:13:42.633Z,88.39
2018-09-10T10:14:42.834Z,87.04
2018-09-10T10:15:43.085Z,86.27
2018-09-10T10:16:43.196Z,89.59
2018-09-10T10:17:43.399Z,87.57
2018-09-10T10:18:43.583Z,86.99
2018-09-10T10:19:43.794Z,85.44
2018-09-10T10:20:43.951Z,86.11
2018-09-10T10:21:44.174Z,87.66
2018-09-10T10:22:44.335Z,88.53
2018-09-10T10:23:44.509Z,88.63
2018-09-10T10:24:44.696Z,87.90
2018-09-10T10:25:44.909Z,87.76
2018-09-10T10:26:45.105Z,88.82
2018-09-10T10:27:45.293Z,86.65
2018-09-10T10:28:45.487Z,85.19
2018-09-10T10:29:45.676Z,85.52
2018-09-10T10:30:45.880Z,86.49
2018-09-10T10:31:46.084Z,83.44
2018-09-10T10:32:46.228Z,81.60
2018-09-10T10:33:46.457Z,84.31
2018-09-10T10:34:46.669Z,82.37
2018-09-10T10:35:46.859Z,82.22
2018-09-10T10:36:47.061Z,81.79
2018-09-10T10:37:47.279Z,82.22
2018-09-10T10:38:47.468Z,80.87
2018-09-10T10:39:47.662Z,81.12
2018-09-10T10:40:47.864Z,80.87
2018-09-10T10:41:48.051Z,81.77
2018-09-10T10:42:48.346Z,85.40
2018-09-10T10:43:48.432Z,80.94
2018-09-10T10:44:48.642Z,78.36
2018-09-10T10:45:48.800Z,79.33
2018-09-10T10:46:49.006Z,79.28
2018-09-10T10:47:49.234Z,74.52
2018-09-10T10:48:49.423Z,73.22
2018-09-10T10:49:49.636Z,75.45
2018-09-10T10:50:49.814Z,74.84
2018-09-10T10:51:50.083Z,76.10
2018-09-10T10:52:50.190Z,73.13
2018-09-10T10:53:50.408Z,74.29
2018-09-10T10:54:50.564Z,71.77
2018-09-10T10:55:50.748Z,73.03
2018-09-10T10:56:50.941Z,73.22
2018-09-10T10:57:51.195Z,72.06
2018-09-10T10:58:51.317Z,70.80
2018-09-10T10:59:51.513Z,71.42
2018-09-10T11:00:51.711Z,69.73
2018-09-10T11:01:51.871Z,68.60
2018-09-10T11:02:52.118Z,68.89
2018-09-10T11:03:52.258Z,67.92
2018-09-10T11:04:52.475Z,67.54
2018-09-10T11:05:52.647Z,68.35
2018-09-10T11:06:52.816Z,69.02
2018-09-10T11:07:52.989Z,68.73
2018-09-10T11:08:53.181Z,67.66
2018-09-10T11:09:53.364Z,68.25
2018-09-10T11:10:53.583Z,69.02
2018-09-10T11:11:53.743Z,65.20
2018-09-10T11:12:53.951Z,65.47
2018-09-10T11:13:54.145Z,66.95
2018-09-10T11:14:54.316Z,65.40
2018-09-10T11:15:54.514Z,64.82
2018-09-10T11:16:54.696Z,64.56
2018-09-10T11:17:54.872Z,64.46
2018-09-10T11:18:55.061Z,63.20
2018-09-10T11:19:55.249Z,63.01
2018-09-10T11:20:55.633Z,64.07
2018-09-10T11:21:55.591Z,63.49
2018-09-10T11:22:55.784Z,64.17
2018-09-10T11:23:55.971Z,64.26
2018-09-10T11:24:56.199Z,63.49
2018-09-10T11:25:56.412Z,61.58
2018-09-10T11:26:56.541Z,64.69
2018-09-10T11:27:56.742Z,63.01
2018-09-10T11:28:56.938Z,62.71
2018-09-10T11:29:57.091Z,63.49
2018-09-10T11:30:57.286Z,61.65
2018-09-10T11:31:57.505Z,61.84
2018-09-10T11:32:57.663Z,62.62
2018-09-10T11:33:57.881Z,61.55
2018-09-10T11:34:58.051Z,60.97
2018-09-10T11:35:58.243Z,59.15
2018-09-10T11:36:58.398Z,59.44
2018-09-10T11:37:58.590Z,59.38
2018-09-10T11:38:58.778Z,58.98
2018-09-10T11:39:58.999Z,59.08
2018-09-10T11:40:59.163Z,58.59
2018-09-10T11:41:59.376Z,58.98
2018-09-10T11:42:59.524Z,57.31
2018-09-10T11:43:59.711Z,56.89
2018-09-10T11:44:59.908Z,58.05
2018-09-10T11:46:00.093Z,56.89
2018-09-10T11:47:00.378Z,56.50
2018-09-10T11:48:00.488Z,56.79
2018-09-10T11:49:00.702Z,56.98
2018-09-10T11:50:00.852Z,57.86
2018-09-10T11:51:01.056Z,56.70
2018-09-10T11:52:01.270Z,57.76
2018-09-10T11:53:01.436Z,59.31
2018-09-10T11:54:01.663Z,58.44
2018-09-10T11:55:01.820Z,58.93
2018-09-10T11:56:01.982Z,57.96
2018-09-10T11:57:02.171Z,58.93
2018-09-10T11:58:02.379Z,58.15
2018-09-10T11:59:02.557Z,57.86
2018-09-10T12:00:02.777Z,57.76
2018-09-10T12:01:02.958Z,59.54
2018-09-10T12:02:03.215Z,58.05
2018-09-10T12:03:03.385Z,57.28
2018-09-10T12:04:03.547Z,57.37
2018-09-10T12:05:03.748Z,57.37
2018-09-10T12:06:03.935Z,57.08
2018-09-10T12:07:04.188Z,57.69
2018-09-10T12:08:04.304Z,60.41
2018-09-10T12:09:04.513Z,58.95
2018-09-10T12:10:04.660Z,57.98
2018-09-10T12:11:04.904Z,58.57
2018-09-10T12:12:05.033Z,58.57
2018-09-10T12:13:05.221Z,57.89
2018-09-10T12:14:05.405Z,58.37
2018-09-10T12:15:05.613Z,58.37
2018-09-10T12:16:05.872Z,58.25
2018-09-10T12:17:06.006Z,58.18
2018-09-10T12:18:06.216Z,58.86
2018-09-10T12:19:06.448Z,57.40
2018-09-10T12:20:06.604Z,56.50
2018-09-10T12:21:06.791Z,56.40
2018-09-10T12:22:06.977Z,57.28
2018-09-10T12:23:07.172Z,59.51
2018-09-10T12:24:07.391Z,57.18
2018-09-10T12:25:07.617Z,57.28
2018-09-10T12:26:07.758Z,56.50
2018-09-10T12:27:07.930Z,57.47
2018-09-10T12:28:08.198Z,56.70
2018-09-10T12:29:08.303Z,55.63
2018-09-10T12:30:08.513Z,55.82
2018-09-10T12:31:08.732Z,55.53
2018-09-10T12:32:09.048Z,54.49
2018-09-10T12:33:09.086Z,54.58
2018-09-10T12:34:09.273Z,55.07
2018-09-10T12:35:09.455Z,55.39
2018-09-10T12:36:09.632Z,55.10
2018-09-10T12:37:10.252Z,54.22
2018-09-10T12:38:10.075Z,53.54
2018-09-10T12:39:10.227Z,52.96
2018-09-10T12:40:10.478Z,52.86
2018-09-10T12:41:10.647Z,54.05
2018-09-10T12:42:10.826Z,52.98
2018-09-10T12:43:11.809Z,53.28
2018-09-10T12:44:11.168Z,53.99
2018-09-10T12:45:11.366Z,53.08
2018-09-10T12:46:11.536Z,53.20
2018-09-10T12:47:11.896Z,53.11
2018-09-10T12:48:11.967Z,53.11
2018-09-10T12:49:12.338Z,52.62
2018-09-10T12:50:12.350Z,51.65
2018-09-10T12:51:12.818Z,51.94
2018-09-10T12:52:12.920Z,52.19
2018-09-10T12:53:12.969Z,52.86
2018-09-10T12:54:13.149Z,53.54
2018-09-10T12:55:13.389Z,53.45